createdAt,value
2022-11-17T00:06:31.965Z,19.30
2022-11-17T00:11:52.797Z,19.30
2022-11-17T00:14:36.403Z,19.30
2022-11-17T00:17:05.572Z,19.30
2022-11-17T00:22:23.124Z,19.20
2022-11-17T00:27:21.683Z,19.20
2022-11-17T00:38:02.083Z,19.30
2022-11-17T00:45:32.285Z,19.20
2022-11-17T00:53:01.714Z,19.20
2022-11-17T01:03:02.696Z,19.20
2022-11-17T01:10:27.136Z,19.20
2022-11-17T01:12:53.671Z,19.20
2022-11-17T01:17:51.786Z,19.20
2022-11-17T01:25:21.762Z,19.20
2022-11-17T01:32:51.639Z,19.20
2022-11-17T01:42:52.555Z,19.30
2022-11-17T01:50:49.143Z,19.20
2022-11-17T01:53:18.677Z,19.20
2022-11-17T01:55:53.746Z,19.20
2022-11-17T02:03:34.596Z,19.20
2022-11-17T02:08:46.421Z,19.20
2022-11-17T02:11:16.761Z,19.20
2022-11-17T02:13:44.682Z,19.20
2022-11-17T02:16:13.272Z,19.20
2022-11-17T02:18:41.677Z,19.20
2022-11-17T02:24:02.973Z,19.20
2022-11-17T02:27:16.214Z,19.20
2022-11-17T02:29:53.005Z,19.20
2022-11-17T02:35:19.021Z,19.20
2022-11-17T02:38:07.694Z,19.20
2022-11-17T02:40:43.801Z,19.20
2022-11-17T02:43:35.005Z,19.20
2022-11-17T02:46:16.089Z,19.20
2022-11-17T02:48:56.357Z,19.20
2022-11-17T02:51:24.397Z,19.20
2022-11-17T02:53:54.519Z,19.20
2022-11-17T02:56:21.590Z,19.20
2022-11-17T02:58:51.777Z,19.20
2022-11-17T03:01:48.377Z,19.20
2022-11-17T03:04:42.768Z,19.20
2022-11-17T03:07:46.879Z,19.20
2022-11-17T03:10:16.438Z,19.20
2022-11-17T03:12:55.114Z,19.10
2022-11-17T03:15:44.141Z,19.10
2022-11-17T03:18:28.077Z,19.20
2022-11-17T03:23:48.361Z,19.20
2022-11-17T03:28:52.994Z,19.10
2022-11-17T03:31:22.017Z,19.20
2022-11-17T03:36:26.893Z,19.20
2022-11-17T03:39:01.928Z,19.20
2022-11-17T03:41:31.918Z,19.20
2022-11-17T03:46:33.944Z,19.10
2022-11-17T03:49:17.556Z,19.10
2022-11-17T03:51:44.234Z,19.20
2022-11-17T04:02:31.826Z,19.10
2022-11-17T04:05:07.395Z,19.10
2022-11-17T04:18:22.831Z,19.10
2022-11-17T04:20:54.256Z,19.10
2022-11-17T04:23:21.845Z,19.10
2022-11-17T04:26:12.756Z,19.10
2022-11-17T04:28:43.354Z,19.10
2022-11-17T04:33:47.133Z,19.10
2022-11-17T04:36:16.230Z,19.10
2022-11-17T04:38:44.509Z,19.10
2022-11-17T04:41:31.706Z,19.10
2022-11-17T04:46:31.924Z,19.10
2022-11-17T04:51:31.715Z,19.10
2022-11-17T04:59:01.982Z,19.10
2022-11-17T05:04:02.259Z,19.10
2022-11-17T05:09:13.655Z,19.10
2022-11-17T05:17:09.433Z,19.10
2022-11-17T05:19:38.194Z,19.10
2022-11-17T05:22:24.650Z,19.10
2022-11-17T05:24:52.561Z,19.10
2022-11-17T05:32:23.029Z,19.10
2022-11-17T05:39:52.551Z,19.10
2022-11-17T05:47:22.491Z,19.10
2022-11-17T05:54:52.026Z,19.10
2022-11-17T05:57:26.700Z,19.10
2022-11-17T06:07:43.338Z,19.10
2022-11-17T06:12:41.943Z,19.10
2022-11-17T06:17:55.133Z,19.10
2022-11-17T06:23:03.294Z,19.10
2022-11-17T06:25:30.174Z,19.10
2022-11-17T06:27:58.257Z,19.00
2022-11-17T06:30:24.804Z,19.00
2022-11-17T06:32:52.636Z,19.10
2022-11-17T06:35:19.409Z,19.10
2022-11-17T07:21:19.841Z,18.80
2022-11-17T07:28:50.000Z,18.90
2022-11-17T08:08:59.701Z,19.00
2022-11-17T08:49:26.985Z,19.00
2022-11-17T08:51:53.635Z,19.00
2022-11-17T08:54:20.208Z,19.00
2022-11-17T08:56:46.903Z,19.00
2022-11-17T08:59:13.677Z,19.00
2022-11-17T09:01:40.591Z,19.00
2022-11-17T09:04:08.135Z,19.10
2022-11-17T09:06:34.822Z,19.00
2022-11-17T09:09:01.647Z,19.00
2022-11-17T09:11:28.583Z,19.00
2022-11-17T09:13:55.299Z,19.00
2022-11-17T09:16:23.887Z,19.00
2022-11-17T09:36:43.079Z,18.90
2022-11-17T09:39:09.969Z,18.90
2022-11-17T09:41:41.313Z,18.90
2022-11-17T09:44:39.577Z,18.90
2022-11-17T09:47:30.701Z,18.90
2022-11-17T09:50:06.107Z,18.90
2022-11-17T09:52:53.213Z,18.90
2022-11-17T09:55:49.064Z,18.90
2022-11-17T09:58:19.783Z,18.90
2022-11-17T10:03:23.258Z,18.90
2022-11-17T10:05:51.353Z,18.90
2022-11-17T10:08:22.522Z,18.90
2022-11-17T10:10:51.423Z,18.90
2022-11-17T10:13:33.626Z,18.90
2022-11-17T10:16:05.834Z,18.90
2022-11-17T10:18:38.076Z,18.90
2022-11-17T10:23:46.872Z,18.90
2022-11-17T10:26:15.524Z,18.90
2022-11-17T10:28:42.599Z,18.90
2022-11-17T10:31:19.582Z,18.90
2022-11-17T10:36:24.259Z,18.90
2022-11-17T10:38:54.108Z,18.90
2022-11-17T10:44:25.781Z,18.90
2022-11-17T10:47:02.408Z,18.90
2022-11-17T10:49:38.361Z,18.90
2022-11-17T10:52:14.235Z,18.90
2022-11-17T10:54:40.855Z,18.90
2022-11-17T10:57:13.548Z,18.90
2022-11-17T10:59:56.487Z,18.90
2022-11-17T11:02:39.004Z,19.00
2022-11-17T11:05:17.368Z,18.90
2022-11-17T11:07:44.346Z,19.00
2022-11-17T11:10:26.155Z,19.00
2022-11-17T11:13:01.903Z,19.00
2022-11-17T11:15:34.051Z,19.00
2022-11-17T11:18:01.011Z,19.00
2022-11-17T11:20:55.742Z,19.00
2022-11-17T11:23:50.140Z,19.00
2022-11-17T11:26:32.803Z,19.00
2022-11-17T11:29:11.766Z,19.00
2022-11-17T12:08:29.455Z,19.00
2022-11-17T12:16:36.558Z,19.10
2022-11-17T12:19:23.547Z,19.10
2022-11-17T12:21:55.584Z,19.10
2022-11-17T12:24:35.822Z,19.10
2022-11-17T12:27:38.359Z,19.10
2022-11-17T12:30:26.598Z,19.10
2022-11-17T12:32:54.630Z,19.10
2022-11-17T12:35:27.572Z,19.10
2022-11-17T12:38:19.928Z,19.10
2022-11-17T12:40:48.346Z,19.10
2022-11-17T12:43:14.920Z,19.10
2022-11-17T12:45:53.713Z,19.10
2022-11-17T12:48:33.883Z,19.10
2022-11-17T12:51:15.938Z,19.10
2022-11-17T12:54:05.298Z,19.20
2022-11-17T12:56:46.104Z,19.20
2022-11-17T12:59:25.644Z,19.20
2022-11-17T13:02:23.516Z,19.10
2022-11-17T13:05:01.626Z,19.10
2022-11-17T13:07:28.444Z,19.20
2022-11-17T13:09:57.238Z,19.20
2022-11-17T13:12:32.000Z,19.20
2022-11-17T13:15:04.215Z,19.20
2022-11-17T13:17:40.203Z,19.20
2022-11-17T13:20:30.466Z,19.20
2022-11-17T13:23:06.528Z,19.10
2022-11-17T13:25:34.734Z,19.10
2022-11-17T13:28:04.871Z,19.10
2022-11-17T13:30:32.625Z,19.10
2022-11-17T13:35:35.894Z,19.10
2022-11-17T13:38:13.765Z,19.10
2022-11-17T13:43:15.053Z,19.10
2022-11-17T13:45:43.331Z,19.10
2022-11-17T13:48:32.889Z,19.10
2022-11-17T13:51:44.467Z,19.20
2022-11-17T13:54:16.865Z,19.10
2022-11-17T13:56:46.432Z,19.10
2022-11-17T13:59:31.245Z,19.10
2022-11-17T14:02:16.246Z,19.10
2022-11-17T14:05:10.903Z,19.10
2022-11-17T14:07:39.152Z,19.10
2022-11-17T14:10:15.040Z,19.10
2022-11-17T14:15:25.628Z,19.20
2022-11-17T14:18:05.329Z,19.10
2022-11-17T14:20:34.693Z,19.10
2022-11-17T14:23:10.375Z,19.10
2022-11-17T14:50:33.140Z,19.10
2022-11-17T15:05:15.218Z,19.10
2022-11-17T15:07:42.529Z,19.10
2022-11-17T15:10:09.938Z,19.10
2022-11-17T15:15:04.982Z,19.10
2022-11-17T15:29:53.342Z,19.10
2022-11-17T15:39:44.912Z,19.10
2022-11-17T15:47:05.221Z,19.10
2022-11-17T15:54:25.230Z,19.10
2022-11-17T15:56:52.090Z,19.10
2022-11-17T15:59:19.604Z,19.10
2022-11-17T16:01:46.817Z,19.10
2022-11-17T16:04:15.912Z,19.10
2022-11-17T16:06:44.514Z,19.10
2022-11-17T16:09:12.512Z,19.10
2022-11-17T16:14:06.822Z,19.00
2022-11-17T16:16:38.823Z,19.10
2022-11-17T16:19:06.479Z,19.00
2022-11-17T16:21:33.261Z,19.10
2022-11-17T16:26:28.429Z,19.10
2022-11-17T16:39:01.306Z,19.00
2022-11-17T16:41:34.550Z,19.10
2022-11-17T16:51:28.394Z,19.10
2022-11-17T16:54:03.734Z,19.10
2022-11-17T17:01:27.764Z,19.10
2022-11-17T17:03:56.327Z,19.10
2022-11-17T17:06:23.508Z,19.10
2022-11-17T17:11:27.265Z,19.20
2022-11-17T17:13:54.328Z,19.20
2022-11-17T17:33:48.110Z,19.30
2022-11-17T17:36:59.763Z,19.30
2022-11-17T17:39:24.763Z,19.30
2022-11-17T17:51:45.583Z,19.40
2022-11-17T17:56:47.857Z,19.40
2022-11-17T17:59:15.933Z,19.40
2022-11-17T18:01:45.973Z,19.20
2022-11-17T18:04:16.187Z,19.10
2022-11-17T18:06:46.995Z,19.10
2022-11-17T18:09:15.703Z,19.20
2022-11-17T18:11:45.992Z,19.30
2022-11-17T18:14:13.371Z,19.30
2022-11-17T18:19:16.797Z,19.40
2022-11-17T18:21:44.637Z,19.40
2022-11-17T18:24:12.529Z,19.40
2022-11-17T18:29:12.500Z,19.50
2022-11-17T18:36:36.324Z,19.50
2022-11-17T18:39:03.660Z,19.50
2022-11-17T18:41:36.464Z,19.50
2022-11-17T18:44:04.083Z,19.60
2022-11-17T18:46:37.615Z,19.50
2022-11-17T18:49:04.458Z,19.60
2022-11-17T18:51:32.950Z,19.60
2022-11-17T18:54:01.453Z,19.60
2022-11-17T18:56:32.437Z,19.60
2022-11-17T18:58:59.559Z,19.60
2022-11-17T19:01:28.268Z,19.60
2022-11-17T19:03:57.194Z,19.60
2022-11-17T19:06:25.807Z,19.60
2022-11-17T19:08:53.171Z,19.60
2022-11-17T19:11:21.574Z,19.60
2022-11-17T19:13:48.336Z,19.70
2022-11-17T19:16:20.850Z,19.60
2022-11-17T19:18:49.422Z,19.60
2022-11-17T19:21:25.555Z,19.60
2022-11-17T19:23:53.799Z,19.60
2022-11-17T19:26:23.609Z,19.60
2022-11-17T19:28:50.948Z,19.60
2022-11-17T19:31:19.893Z,19.60
2022-11-17T19:33:48.008Z,19.60
2022-11-17T19:36:16.082Z,19.60
2022-11-17T19:38:45.771Z,19.60
2022-11-17T19:41:15.826Z,19.50
2022-11-17T19:43:45.625Z,19.50
2022-11-17T19:48:44.436Z,19.50
2022-11-17T19:51:18.904Z,19.60
2022-11-17T19:53:52.450Z,19.60
2022-11-17T19:56:19.983Z,19.60
2022-11-17T19:58:48.097Z,19.60
2022-11-17T20:01:20.376Z,19.60
2022-11-17T20:03:55.921Z,19.60
2022-11-17T20:08:55.108Z,19.70
2022-11-17T20:11:24.263Z,19.70
2022-11-17T20:13:51.097Z,19.70
2022-11-17T20:16:24.652Z,19.70
2022-11-17T20:26:57.519Z,19.80
2022-11-17T20:36:58.704Z,19.80
2022-11-17T20:44:28.311Z,19.80
2022-11-17T20:49:28.842Z,19.80
2022-11-17T20:56:58.783Z,19.80
2022-11-17T21:04:28.390Z,19.90
2022-11-17T21:11:58.024Z,19.90
2022-11-17T21:17:00.237Z,19.90
2022-11-17T21:19:27.891Z,19.90
2022-11-17T21:24:27.671Z,19.90
2022-11-17T21:29:26.804Z,20.00
2022-11-17T21:31:53.364Z,20.00
2022-11-17T21:34:19.947Z,20.00
2022-11-17T21:36:46.567Z,20.00
2022-11-17T21:39:18.385Z,19.90
2022-11-17T21:41:45.475Z,20.00
2022-11-17T21:44:13.593Z,20.00
2022-11-17T21:46:40.596Z,20.00
2022-11-17T21:51:38.912Z,19.90
2022-11-17T21:54:09.937Z,19.90
2022-11-17T21:56:36.681Z,19.90
2022-11-17T21:59:10.779Z,19.90
2022-11-17T22:01:37.787Z,20.00
2022-11-17T22:04:04.829Z,19.90
2022-11-17T22:06:31.387Z,19.90
2022-11-17T22:08:58.994Z,19.90
2022-11-17T22:11:36.841Z,20.00
2022-11-17T22:14:10.814Z,20.00
2022-11-17T22:16:39.809Z,20.00
2022-11-17T22:19:07.910Z,20.00
2022-11-17T22:21:36.418Z,20.00
2022-11-17T22:24:07.586Z,20.00
2022-11-17T22:26:38.306Z,19.90
2022-11-17T22:29:22.448Z,20.00
2022-11-17T22:31:50.605Z,20.00
2022-11-17T22:34:18.323Z,20.00
2022-11-17T22:41:48.322Z,20.00
2022-11-17T22:46:47.513Z,20.00
2022-11-17T22:59:38.647Z,20.00
2022-11-17T23:07:08.336Z,20.00
2022-11-17T23:12:06.642Z,20.00
2022-11-17T23:14:33.203Z,20.00
2022-11-17T23:16:59.827Z,20.00
2022-11-17T23:21:57.922Z,20.00
2022-11-17T23:29:27.963Z,20.00
2022-11-17T23:34:27.541Z,20.00
2022-11-17T23:41:57.675Z,20.00
2022-11-17T23:44:24.246Z,19.90
2022-11-17T23:46:50.780Z,20.00
2022-11-17T23:51:48.848Z,19.90
2022-11-17T23:56:50.380Z,19.90
